Airfield :
LOGIN :

Register | Disclaimer

   EN    FR    IT 

 










Legend :    VFR   Marginal VFR   IFR   Intensive IFR   Very Intensive IFR
Visi :
Ceiling :
>= 8 km
>= 3000ft
5 to 8 km
1000 to 3000 ft
1500m to 5 km
500 to 1000 ft
800 to 1500m
200 to 500 ft
< 800m
< 200 ft
Symbols :   Thunderstorms  Fog  Heavy snow  Heavy precipitations  Wind > 20 kt
SIGMETs :     Misc.  Thunderstorms  Icing  Turbulence  Mountain Waves  Volcanic Ashes






- Airport Elevation : 580 ft


LFOA - Avord

CURRENT METAR :
  • 192130Z AUTO VRB02KT CAVOK 09/03 Q1017

EXPIRED METARs :
  • 192100Z AUTO 06002KT CAVOK 09/03 Q1017
  • 192030Z AUTO 00000KT CAVOK 10/03 Q1017
  • 192000Z AUTO 05004KT CAVOK 11/03 Q1017
  • 191930Z AUTO 07002KT CAVOK 12/03 Q1017
  • 191900Z AUTO 04002KT CAVOK 13/03 Q1017

TAF TAF LFOA
Valid from the 19 at 15:00 until the 20 at 15:00 UTC


191400Z 1915/2015 05005KT CAVOK TX17/2014Z TN04/2005Z
PROB30
TEMPO 2000/2006 3000 BR
TEMPO 2010/2015 4000 SHRA BKN040TCU



MET'MAP, your aeronautical weather chart ! - Copyright ORBIFLY December 2007 - Disclaimer

ORBIFLY MET'MAP TEAM :

Programming & Development : Alexandra Zaïnal
Concept & original design : Baudouin d'Aumeries
Assistance for programming : Marc-Olivier Méhu
Technical & hardware support : Manuel Goepfert

Contact : metmap@orbifly.com




SOURCES & CREDITS :

   NOAA